Sloughhouse, California
Current Conditions -  °F | °C
As of 1:46 PM on Monday 24 Nov 2014 (Local Time) from KMHR Reporting Station
Scattered Clouds Scattered Clouds  
Wind Chill: 61°   Ceiling: Unl
Heat Index: 61°   Visibility: 10mi
Dew Point: 39°   Wind: 6mph
Humidity: 45%   Direction: 310°NW
Pressure: 30.36"   Gusts: NA
Location:  38.5°N, 121.19°W
Report Text: KMHR 242146Z 31005KT 10SM SCT200 16/04 A3036
Loading
Personal Weather Stations






























Interactive Weather Map New forecast layout! Learn more

10-Day Weather Forecast

Advertisements
Track Severe Weather on mobile